Tiempo atmosférico en la estación meteorológica de Viso Del Marqués, Ciudad Real (778 m.)



Fecha
DESCASC
Temp. máxima en grados centígrados (hora)
DESCASC
Temp. mínima en grados centígrados (hora)
DESCASC
Temp. media en grados centígrados
DESCASC
Racha de viento máxima en m/sg (hora)
DESCASC
Velocidad máxima media en intervalos de 10 minutos(hora)
DESCASC
Precipitaciones diarias en mm
DESCASC
Precipitaciones de 00:00 a 06:00 en mm
DESCASC
Precipitaciones de 06:00 a 12:00 en mm
DESCASC
Precipitaciones de 12:00 a 18:00 en mm
DESCASC
Precipitaciones de 18:00 a 24:00 en mm
DESCASC
19-05-2019 20.4 (15:20) 7.9 (07:30) 14.1 9.72 (19:00) 5.56 (19:20) 0 0 0 0 0
18-05-2019 19.1 (17:00) 7.6 (07:40) 13.4 11.67 (14:40) 6.67 (17:10) 0 0 0 0 0
17-05-2019 18.6 (17:10) 7.4 (07:20) 13 13.06 (03:10) 8.06 (03:00) 0 0 0 0 0
16-05-2019 29.5 (16:30) 16 (00:00) 22.8 14.17 (20:50) 9.72 (19:20) 0 0 0 0 0
15-05-2019 31.8 (17:30) 13 (00:00) 22.4 9.17 (17:40) 5 (18:00) 0 0 0 0 0
14-05-2019 29.4 (16:50) 13.7 (00:00) 21.5 7.5 (04:00) 5 (08:40) 0 0 0 0 0
13-05-2019 27.9 (17:50) 9.6 (00:00) 18.8 8.06 (17:20) 4.72 (18:20) 0 0 0 0 0
12-05-2019 27.3 (17:40) 9 (00:00) 18.1 6.94 (17:40) 4.17 (19:00) 0 0 0 0 0
11-05-2019 27.7 (16:30) 10.5 (00:00) 19.1 7.22 (18:50) 4.17 (19:10) 0 0 0 0 0
10-05-2019 26.2 (17:10) 12.7 (00:00) 19.5 9.17 (18:40) 4.17 (18:40) 0 0 0 0 0
09-05-2019 20.3 (16:10) 12.2 (00:00) 16.2 8.61 (16:00) 5.56 (16:40) 1 0.5 0.5 0 0
08-05-2019 19.4 (17:00) 12 (00:00) 15.7 13.06 (12:20) 9.44 (13:10) 0 0 0 0 0
07-05-2019 25.1 (17:10) 9.8 (00:00) 17.5 8.61 (18:30) 5.83 (19:20) 0 0 0 0 0
06-05-2019 24 (16:00) 10.7 (00:00) 17.3 8.89 (14:10) 5.28 (19:40) 0 0 0 0 0
05-05-2019 23.4 (18:50) 8.1 (00:00) 15.8 10.83 (18:40) 5.56 (20:20) 0 0 0 0 0
04-05-2019 20.7 (17:00) 6.1 (00:00) 13.4 9.44 (18:20) 3.61 (16:50) 0 0 0 0 0
03-05-2019 24.6 (16:00) 11.1 (00:00) 17.9 12.22 (16:30) 7.5 (16:30) 1.5 0 0 1.2 0.3
02-05-2019 24.3 (17:20) 11.8 (08:10) 18 10 (02:10) 5.83 (01:10) 2 2 0 0 0
01-05-2019 26.7 (17:00) 11.8 (00:00) 19.3 6.11 (18:40) 4.17 (23:30) 0 0 0 0 0
30-04-2019 26.1 (16:20) 10.8 (00:00) 18.5 7.22 (17:00) 4.17 (18:40) 0 0 0 0 0
29-04-2019 25.2 (16:30) 9.8 (00:00) 17.5 5.56 (17:30) 2.78 (16:00) 0 0 0 0 0
28-04-2019 24.4 (17:20) 7 (00:00) 15.7 5 (21:20) 3.33 (20:50) 0 0 0 0 0
27-04-2019 21.1 (17:50) 3 (00:00) 12.1 6.39 (11:40) 3.06 (21:30) 0 0 0 0 0
26-04-2019 16.3 (18:10) 3.3 (00:00) 9.8 5.56 (16:50) 3.89 (01:20) 0 0 0 0 0
25-04-2019 14.4 (14:50) 6.1 (00:00) 10.2 19.17 (03:50) 12.5 (04:30) 15 7 5.2 0.4 2.4
24-04-2019 13.5 (15:30) 2.6 (00:00) 8 19.17 (19:20) 13.33 (19:20) 3.5 1.2 0 0 2.3
23-04-2019 11.4 (14:40) 2.6 (00:00) 7 15.83 (09:30) 11.67 (09:30) 7.8 0.1 3.2 0.3 4.2

Gráficas

Temp. máximas Temp. mínimas Temp. medias Precipitaciones Rachas de viento máximas Velocidades máximas media en intervalos de 10 minutos

Datos horarios

Fecha y hora oficial Temperatura (ºC) Velocidad del viento (km/h) Dirección del viento Racha (km/h) Dirección de racha Precipitación (mm) Presión (hPa) Tendencia (hPa) Humedad (%)
2019-05-22 23:00:00 19.8 5 Sudoeste 12 Sudoeste 0 925.2 1.1 25
2019-05-22 22:00:00 19.8 5 Sudoeste 13 Sudoeste 0 924.9 0.5 24
2019-05-22 21:00:00 22.9 10 Sudoeste 18 Sudoeste 0 924.4 -0.2 22
2019-05-22 20:00:00 24.4 12 Sudoeste 17 Sudoeste 0 924.1 -0.4 21
2019-05-22 19:00:00 25.9 11 Sudoeste 24 Sudoeste 0 924.4 -0.4 20
2019-05-22 18:00:00 27 10 Oeste 20 Oeste 0 924.6 -0.5 20
2019-05-22 17:00:00 25.1 3 Oeste 18 Sudoeste 0 924.5 -0.9 22
2019-05-22 16:00:00 24.8 8 Oeste 20 Oeste 0 924.8 -0.9 22
2019-05-22 15:00:00 25.7 8 Sudoeste 25 Sur 0 925.1 -0.5 22
2019-05-22 14:00:00 24.6 12 Sudeste 24 Sur 0 925.4 -0.2 24
2019-05-22 13:00:00 22 9 Sur 15 Sur 0 925.7 0.1 28
2019-05-22 12:00:00 23.1 0 Calma 14 Sur 0 925.6 0.6 25
2019-05-22 11:00:00 22.1 8 Sur 14 Sur 0 925.6 0.5 28
2019-05-22 10:00:00 20.5 3 Sudoeste 9 Nordeste 0 925.6 1.2 31
2019-05-22 09:00:00 17.3 3 Nordeste 7 Nordeste 0 925 1 42
2019-05-22 08:00:00 13 4 Nordeste 6 Norte 0 925.1 0.7 51
2019-05-22 07:00:00 11.2 3 Norte 6 Nordeste 0 924.4 0.2 48
2019-05-22 06:00:00 12.2 4 Nordeste 6 Sudoeste 0 924 0.1 43
2019-05-22 05:00:00 13.3 5 Sudoeste 6 Sudoeste 0 924.4 -0.1 40
2019-05-22 04:00:00 14.7 0 Calma 6 Norte 0 924.2 0.1 36
2019-05-22 03:00:00 16 3 Sudeste 8 Oeste 0 923.9 0.2 34
2019-05-22 02:00:00 15.2 5 Oeste 9 Oeste 0 924.5 0.8 33
2019-05-22 01:00:00 15.7 0 Calma 10 Sudoeste 0 924.1 0.9 33
2019-05-22 00:00:00 15.4 8 Sudoeste 13 Oeste 0 923.7 0.9 32
2019-05-21 23:00:00 17.9 7 Oeste 13 Oeste 0 923.7 1.5 30
2019-05-21 22:00:00 17.9 5 Sur 10 Sudoeste 0 923.2 1.3 29
2019-05-21 21:00:00 19.9 7 Sudoeste 16 Oeste 0 922.8 0.9 26
2019-05-21 20:00:00 22.4 0 Calma 15 Oeste 0 922.2 -0.1 24
2019-05-21 19:00:00 22.3 8 Oeste 23 Sudoeste 0 921.9 -0.5 23
2019-05-21 18:00:00 22.9 11 Sudoeste 18 Sudoeste 0 921.9 -0.6 25
2019-05-21 17:00:00 21.1 5 Sudeste 17 Sudeste 0 922.3 -0.3 26
2019-05-21 16:00:00 20.6 10 Sudeste 22 Sur 0 922.4 -0.3 27
2019-05-21 15:00:00 20.5 13 Sur 27 Sudoeste 0 922.5 -0.5 27
2019-05-21 14:00:00 21.3 10 Sur 21 Sudoeste 0 922.6 0.1 27
2019-05-21 13:00:00 20.7 4 Sudoeste 15 Sudoeste 0 922.7 -0.2 26
2019-05-21 12:00:00 19.7 6 Oeste 22 Sudoeste 0 923 0.4 27
2019-05-21 11:00:00 20.3 10 Este 18 Este 0 922.5 0.3 29
2019-05-21 10:00:00 18.5 6 Nordeste 13 Este 0 922.9 0.8 32
2019-05-21 09:00:00 16.5 0 Calma 6 Noroeste 0 922.6 1.5 34
2019-05-21 08:00:00 12.9 0 Calma 4 Nordeste 0 922.2 0.8 39
2019-05-21 07:00:00 12.4 0 Calma 5 Sudoeste 0 922.1 0.6 40
2019-05-21 06:00:00 12.4 3 Sur 7 Norte 0 921.1 -0.4 37
2019-05-21 05:00:00 12.5 3 Sur 5 Sur 0 921.4 -0.6 35
2019-05-21 04:00:00 14.1 2 Norte 5 Este 0 921.5 -0.5 32
2019-05-21 03:00:00 14.3 0 Calma 6 Oeste 0 921.5 -0.1 32
2019-05-21 02:00:00 15.3 5 Oeste 6 Oeste 0 922 0.3 29
2019-05-21 01:00:00 14.9 2 Sudoeste 6 Oeste 0 922 1 30
2019-05-21 00:00:00 15.8 2 Noroeste 5 Oeste 0 921.6 1.5 29
2019-05-20 23:00:00 15.9 3 Oeste 7 Sudoeste 0 921.7 1.6 29
2019-05-20 22:00:00 15.9 5 Sudoeste 9 Oeste 0 921 1 26
2019-05-20 21:00:00 19.6 5 Noroeste 25 Noroeste 0 920.1 -0.1 24
2019-05-20 20:00:00 20.3 7 Oeste 20 Sudoeste 0 920.1 0 25
2019-05-20 19:00:00 20.1 12 Sudoeste 36 Sudoeste 0 920 -0.4 25
2019-05-20 18:00:00 20.5 13 Sudoeste 32 Sudoeste 0 920.2 -0.7 26
2019-05-20 17:00:00 20.7 9 Sudoeste 24 Sudoeste 0 920.1 -1.2 26
2019-05-20 16:00:00 20.2 12 Sudoeste 24 Sudoeste 0 920.4 -1.1 28
2019-05-20 15:00:00 20.7 2 Norte 25 Sudoeste 0 920.9 -0.5 26
2019-05-20 14:00:00 20 9 Sudoeste 22 Sudoeste 0 921.3 0.1 29
2019-05-20 13:00:00 19 13 Sudoeste 36 Sudoeste 0 921.5 0.3 30
2019-05-20 12:00:00 17.6 14 Sudoeste 26 Sudoeste 0 921.4 0.3 32
2019-05-20 11:00:00 16.8 3 Oeste 15 Sur 0 921.2 0.4 34
2019-05-20 10:00:00 15.1 9 Sudeste 19 Sudeste 0 921.2 0.7 44
2019-05-20 09:00:00 12.2 11 Sudeste 15 Sudeste 0 921.1 1.1 53
2019-05-20 08:00:00 10.2 4 Nordeste 7 Nordeste 0 920.8 0.6 42
2019-05-20 07:00:00 9.1 0 Calma 6 Noroeste 0 920.5 -0.3 38
2019-05-20 06:00:00 10.2 5 Noroeste 10 Oeste 0 920 -0.6 35
2019-05-20 05:00:00 10.5 7 Oeste 15 Oeste 0 920.2 -0.5 34
2019-05-20 04:00:00 10.8 13 Oeste 19 Oeste 0 920.8 -0.3 32
2019-05-20 03:00:00 10.8 0 Calma 7 Sudoeste 0 920.6 -0.5 31
2019-05-20 02:00:00 10.1 6 Sudoeste 11 Oeste 0 920.7 0.1 30
2019-05-20 01:00:00 13.2 9 Oeste 12 Oeste 0 921.1 0.9 27
2019-05-20 00:00:00 13.1 7 Oeste 12 Oeste 0 921.1 1.4 27
2019-05-19 23:00:00 11.8 8 Sudoeste 11 Sudoeste 0 920.6 1.4 28
2019-05-19 22:00:00 12.9 8 Sudoeste 18 Oeste 0 920.2 1 27
2019-05-19 21:00:00 16.4 11 Oeste 24 Oeste 0 919.7 0.9 22
2019-05-19 20:00:00 18.1 15 Noroeste 32 Noroeste 0 919.2 -0.1 21
2019-05-19 19:00:00 19.4 18 Noroeste 35 Oeste 0 919.2 -0.6 20
2019-05-19 18:00:00 19.4 17 Noroeste 34 Oeste 0 918.8 -1.2 20
2019-05-19 17:00:00 19.5 8 Noroeste 33 Oeste 0 919.3 -0.8 21
2019-05-19 16:00:00 19.2 11 Noroeste 27 Oeste 0 919.8 -0.4 23
2019-05-19 15:00:00 17.9 10 Oeste 25 Sudoeste 0 920 -0.1 24
2019-05-19 14:00:00 18.8 13 Sudoeste 31 Sudoeste 0 920.1 -0.3 25
2019-05-19 13:00:00 16.6 6 Oeste 25 Sur 0 920.2 0 27
2019-05-19 12:00:00 15.8 4 Sudeste 17 Oeste 0 920.1 -0.1 29
2019-05-19 11:00:00 14.2 9 Noroeste 15 Noroeste 0 920.4 0.4 32
2019-05-19 10:00:00 13.5 5 Oeste 17 Sudoeste 0 920.2 0.7 35
2019-05-19 09:00:00 10.7 9 Oeste 17 Noroeste 0 920.2 0.9 39
2019-05-19 08:00:00 9.4 7 Oeste 16 Oeste 0 920 0.6 41
2019-05-19 07:00:00 8.1 13 Oeste 19 Oeste 0 919.5 0.1 41
2019-05-19 06:00:00 8.7 10 Oeste 18 Oeste 0 919.3 -0.2 39
2019-05-19 05:00:00 8.7 13 Oeste 16 Oeste 0 919.4 -0.7 37
2019-05-19 04:00:00 9 10 Oeste 17 Oeste 0 919.4 -1.1 35
2019-05-19 03:00:00 9.7 11 Oeste 17 Oeste 0 919.5 -0.9 32
2019-05-19 02:00:00 10 7 Oeste 18 Oeste 0 920.1 -0.1 32
2019-05-19 01:00:00 10.3 15 Oeste 18 Oeste 0 920.5 0.7 30
2019-05-19 00:00:00 10.9 12 Oeste 17 Oeste 0 920.4 0.9 29
2019-05-18 23:00:00 10.6 13 Oeste 17 Oeste 0 920.2 1.6 29
2019-05-18 22:00:00 12 10 Oeste 20 Oeste 0 919.8 1.1 26
2019-05-18 21:00:00 14.9 12 Oeste 33 Oeste 0 919.5 0.9 22
2019-05-18 20:00:00 16.2 18 Oeste 32 Oeste 0 918.6 0.5 21
2019-05-18 19:00:00 17.5 14 Oeste 35 Oeste 0 918.7 0.1 19
2019-05-18 18:00:00 18.5 18 Oeste 37 Sudoeste 0 918.6 -0.1 19
2019-05-18 17:00:00 18.3 18 Oeste 40 Sudoeste 0 918.1 -0.2 20
2019-05-18 16:00:00 16.6 17 Oeste 36 Oeste 0 918.6 -0.5 22
2019-05-18 15:00:00 17.4 15 Oeste 42 Sudoeste 0 918.7 -0.1 22
2019-05-18 14:00:00 17.3 12 Oeste 29 Oeste 0 918.3 -0.7 25
2019-05-18 13:00:00 15.7 13 Oeste 28 Oeste 0 919.1 0.1 30
2019-05-18 12:00:00 13.6 12 Oeste 24 Noroeste 0 918.8 0.2 36
2019-05-18 11:00:00 13.3 10 Oeste 22 Oeste 0 919 0 39
2019-05-18 10:00:00 11.7 9 Oeste 19 Noroeste 0 919 0.7 42
2019-05-18 09:00:00 10.7 9 Oeste 17 Oeste 0 918.6 0.6 44
2019-05-18 08:00:00 8.4 10 Oeste 18 Oeste 0 919 1.1 48
2019-05-18 07:00:00 8.4 10 Oeste 17 Oeste 0 918.3 -0.6 46
2019-05-18 06:00:00 8.3 9 Oeste 15 Oeste 0 918 -1.1 44
2019-05-18 05:00:00 8.5 12 Oeste 17 Oeste 0 917.9 -1.7 42
2019-05-18 04:00:00 9.5 12 Oeste 17 Oeste 0 918.9 -0.6 39
2019-05-18 03:00:00 9.5 9 Oeste 15 Oeste 0 919.1 -0.8 38
2019-05-18 02:00:00 9.9 12 Oeste 18 Oeste 0 919.6 -0.3 36
2019-05-18 01:00:00 10.3 13 Oeste 18 Oeste 0 919.5 0 35
2019-05-18 00:00:00 10.9 14 Oeste 19 Oeste 0 919.9 1.2 34
2019-05-17 23:00:00 11.3 15 Oeste 23 Oeste 0 919.9 1.2 33
2019-05-17 22:00:00 12.3 14 Oeste 29 Sudoeste 0 919.5 0.9 32
2019-05-17 21:00:00 14.2 19 Oeste 32 Oeste 0 918.7 0.2 29
2019-05-17 20:00:00 15.6 23 Sudoeste 33 Sudoeste 0 918.7 -0.1 27
2019-05-17 19:00:00 17.4 13 Oeste 33 Sudoeste 0 918.6 -0.4 25
2019-05-17 18:00:00 18 21 Oeste 36 Oeste 0 918.5 -0.9 25
2019-05-17 17:00:00 17.6 16 Oeste 41 Sudoeste 0 918.8 -0.6 25
2019-05-17 16:00:00 17 14 Oeste 37 Oeste 0 919 -0.4 27
2019-05-17 15:00:00 16.7 17 Oeste 32 Sudoeste 0 919.4 0.1 28
2019-05-17 14:00:00 15.9 13 Noroeste 33 Oeste 0 919.4 0.2 29
2019-05-17 13:00:00 15.6 13 Oeste 37 Oeste 0 919.4 -0.3 31
2019-05-17 12:00:00 13.5 20 Oeste 36 Oeste 0 919.3 -0.3 36
2019-05-17 11:00:00 13 18 Oeste 33 Oeste 0 919.2 0.5 39
2019-05-17 10:00:00 11.3 19 Oeste 32 Oeste 0 919.7 1.5 44
2019-05-17 09:00:00 9.7 14 Oeste 34 Oeste 0 919.6 2 49
2019-05-17 08:00:00 8.4 19 Oeste 32 Oeste 0 918.7 1.2 54
2019-05-17 07:00:00 7.7 16 Oeste 28 Oeste 0 918.2 1.4 56
2019-05-17 06:00:00 8.1 14 Oeste 35 Oeste 0 917.6 0.7 55
2019-05-17 05:00:00 9.3 13 Oeste 32 Oeste 0 917.5 0.3 50
2019-05-17 04:00:00 10.3 18 Oeste 47 Oeste 0 916.8 -0.7 47
2019-05-17 03:00:00 11.2 29 Oeste 42 Oeste 0 916.9 -0.2 47
2019-05-17 02:00:00 12.5 22 Oeste 41 Oeste 0 917.2 0.7 45
2019-05-17 01:00:00 14.6 27 Oeste 43 Oeste 0 917.5 1.5 41
2019-05-17 00:00:00 16.8 16 Oeste 39 Oeste 0 917.1 2.3 28
2019-05-16 23:00:00 18.1 21 Oeste 45 Oeste 0 916.5 1.4 22
2019-05-16 22:00:00 20.6 23 Oeste 49 Sudoeste 0 916 0.9 26
2019-05-16 21:00:00 21.9 30 Sudoeste 51 Sudoeste 0 914.8 -0.8 25
2019-05-16 20:00:00 24.5 31 Sudoeste 48 Sudoeste 0 915.1 -0.9 24
2019-05-16 19:00:00 26.3 33 Sudoeste 46 Sudoeste 0 915.1 -1.7 22
2019-05-16 18:00:00 27.5 30 Sudoeste 43 Sudoeste 0 915.6 -1.9 18
2019-05-16 17:00:00 28 30 Sur 43 Sudoeste 0 916 -2 16
2019-05-16 16:00:00 28.5 27 Sudoeste 41 Sudoeste 0 916.8 -1.6 17
2019-05-16 15:00:00 28.7 25 Sudoeste 46 Sudoeste 0 917.5 -1.2 18
2019-05-16 14:00:00 27.8 28 Sudoeste 43 Sudoeste 0 918 -0.6 19
2019-05-16 13:00:00 27.2 30 Sudoeste 43 Sudoeste 0 918.4 -0.3 20
2019-05-16 12:00:00 26.2 26 Sudoeste 35 Sudoeste 0 918.7 -0.1 22
2019-05-16 11:00:00 26.1 26 Sudoeste 33 Sudoeste 0 918.6 -0.3 23
2019-05-16 10:00:00 24.1 4 Sudoeste 10 Sudoeste 0 918.7 -0.1 29
2019-05-16 09:00:00 20 2 Nordeste 5 Norte 0 918.8 0 35
2019-05-16 08:00:00 17.3 2 Nordeste 8 Nordeste 0 918.9 -0.1 37
2019-05-16 07:00:00 16.7 3 Este 7 Este 0 918.8 -0.2 34
2019-05-16 06:00:00 17.8 5 Nordeste 13 Oeste 0 918.8 -0.8 32
2019-05-16 05:00:00 19 10 Oeste 19 Oeste 0 919 -1.1 30
2019-05-16 04:00:00 19.7 11 Oeste 19 Oeste 0 919 -0.8 26
2019-05-16 03:00:00 19.8 9 Oeste 14 Oeste 0 919.6 -0.6 24
2019-05-16 02:00:00 19.9 4 Nordeste 8 Oeste 0 920.1 -0.2 22
2019-05-16 01:00:00 20.9 7 Oeste 9 Oeste 0 919.8 -0.3 20
2019-05-16 00:00:00 22.2 8 Oeste 14 Oeste 0 920.2 0.2 19
2019-05-15 23:00:00 22.6 9 Oeste 15 Oeste 0 920.3 0.4 18
2019-05-15 22:00:00 21.8 10 Sudoeste 19 Oeste 0 920.1 0.6 18
2019-05-15 21:00:00 27 12 Oeste 22 Oeste 0 920 0.5 13
2019-05-15 20:00:00 28.7 14 Oeste 28 Oeste 0 919.9 0.2 12
2019-05-15 19:00:00 30.2 15 Oeste 32 Oeste 0 919.5 -1 12
2019-05-15 18:00:00 31.2 18 Oeste 33 Sudoeste 0 919.5 -1.5 12
2019-05-15 17:00:00 31.7 12 Sudoeste 28 Oeste 0 919.7 -1.6 12
2019-05-15 16:00:00 30.9 10 Oeste 31 Oeste 0 920.5 -1 12
2019-05-15 15:00:00 30.2 13 Noroeste 30 Oeste 0 921 -1 13
2019-05-15 14:00:00 29.4 14 Oeste 31 Oeste 0 921.3 -0.6 15
2019-05-15 13:00:00 29 8 Oeste 22 Sudoeste 0 921.5 -0.9 18
2019-05-15 12:00:00 27 7 Oeste 18 Oeste 0 922 0 19
2019-05-15 11:00:00 25.4 5 Noroeste 12 Oeste 0 921.9 -0.4 23
2019-05-15 10:00:00 23.7 5 Oeste 11 Sudoeste 0 922.4 0.8 25
2019-05-15 09:00:00 19.7 2 Nordeste 5 Nordeste 0 922 0.1 32
2019-05-15 08:00:00 16.7 0 Calma 4 Norte 0 922.3 0.6 36
2019-05-15 07:00:00 13.2 3 Sur 4 Nordeste 0 921.6 -0.4 39
2019-05-15 06:00:00 14.3 3 Nordeste 6 Nordeste 0 921.9 -0.5 36
2019-05-15 05:00:00 15.7 0 Calma -- -- 0 921.7 -0.9 34
2019-05-15 04:00:00 16.8 0 Calma 8 Nordeste 0 922 -1.2 31
2019-05-15 03:00:00 16.7 5 Nordeste 7 Nordeste 0 922.4 -0.9 31
2019-05-15 02:00:00 18.8 3 Noroeste 11 Oeste 0 922.6 -0.3 28
2019-05-15 01:00:00 19.7 7 Oeste 15 Oeste 0 923.2 0.5 26
2019-05-15 00:00:00 20.6 12 Oeste 17 Oeste 0 923.3 0.5 25
2019-05-14 23:00:00 21.1 10 Oeste 15 Oeste 0 922.9 0.1 25
2019-05-14 22:00:00 20.9 10 Sudoeste 15 Sudoeste 0 922.7 0.3 25
2019-05-14 21:00:00 25.7 5 Noroeste 21 Noroeste 0 922.8 -0.2 18
2019-05-14 20:00:00 27.5 12 Noroeste 21 Noroeste 0 922.8 -0.3 17
2019-05-14 19:00:00 28.2 4 Oeste 18 Noroeste 0 922.4 -1.6 18
2019-05-14 18:00:00 28.4 8 Noroeste 22 Norte 0 923 -1.1 16
2019-05-14 17:00:00 28.6 6 Oeste 22 Oeste 0 923.1 -1.6 16
2019-05-14 16:00:00 27.9 8 Oeste 22 Oeste 0 924 -1.1 18
2019-05-14 15:00:00 26.7 0 Calma 17 Sudeste 0 924.1 -1.3 19
2019-05-14 14:00:00 25.2 6 Norte 20 Sur 0 924.7 -0.9 20
2019-05-14 13:00:00 24.4 7 Sudeste 23 Sudeste 0 925.1 -0.7 21
2019-05-14 12:00:00 23.7 12 Sudeste 23 Sudeste 0 925.4 0 22
2019-05-14 11:00:00 21.4 5 Oeste 18 Sudoeste 0 925.6 0.5 23
2019-05-14 10:00:00 20.7 6 Sudoeste 25 Sur 0 925.8 0.9 25
2019-05-14 09:00:00 18.1 18 Sudeste 26 Sur 0 925.4 0.5 26
2019-05-14 08:00:00 15.7 16 Sudeste 22 Sudeste 0 925.1 0.2 32
2019-05-14 07:00:00 14 11 Sudeste 24 Sudeste 0 924.9 -0.1 36
2019-05-14 06:00:00 15 13 Sudeste 21 Sudeste 0 924.9 -0.1 37
2019-05-14 05:00:00 15.8 11 Sudeste 25 Sudeste 0 924.9 -0.1 37
2019-05-14 04:00:00 15.8 16 Sudeste 27 Sudeste 0 925 -0.1 41
2019-05-14 03:00:00 14.7 10 Este 19 Sudeste 0 925 0 40
2019-05-14 02:00:00 16.9 11 Sudeste 21 Sudeste 0 925 0.1 36
2019-05-14 01:00:00 17.1 13 Este 19 Sudeste 0 925.1 0.3 33
2019-05-14 00:00:00 18.3 8 Este 12 Este 0 925 0.2 24
2019-05-13 23:00:00 20.3 8 Nordeste 10 Nordeste 0 924.9 0.7 15
2019-05-13 22:00:00 22.1 8 Nordeste 15 Norte 0 924.8 0.7 --
2019-05-13 21:00:00 23.8 11 Nordeste 23 Norte 0 924.8 0.4 --
2019-05-13 20:00:00 25.8 13 Norte 24 Nordeste 0 924.2 -0.6 --
2019-05-13 19:00:00 26.4 12 Norte 27 Norte 0 924.1 -0.8 --
2019-05-13 18:00:00 27.4 13 Norte 29 Norte 0 924.4 -1.1 --
2019-05-13 17:00:00 27.2 12 Norte 26 Norte 0 924.8 -1.1 --
2019-05-13 16:00:00 26.9 9 Norte 27 Norte 0 924.9 -1.5 --
2019-05-13 15:00:00 26 12 Norte 23 Norte 0 925.5 -1.4 --
2019-05-13 14:00:00 25.1 12 Norte 23 Oeste 0 925.9 -1.4 --
2019-05-13 13:00:00 24.3 9 Oeste 22 Oeste 0 926.4 -1.1 13
2019-05-13 12:00:00 22.6 10 Noroeste 19 Oeste 0 926.9 -0.8 15
2019-05-13 11:00:00 20.1 6 Oeste 18 Noroeste 0 927.3 -0.2 17
2019-05-13 10:00:00 18.4 7 Oeste 13 Noroeste 0 927.5 0.2 19
2019-05-13 09:00:00 15.9 7 Noroeste 17 Norte 0 927.7 0.4 20
2019-05-13 08:00:00 12.3 4 Oeste 8 Noroeste 0 927.5 0.2 25
2019-05-13 07:00:00 10.5 5 Sudoeste 9 Noroeste 0 927.3 -0.2 25
2019-05-13 06:00:00 13 5 Oeste 9 Noroeste 0 927.3 -0.7 21
2019-05-13 05:00:00 11.3 5 Sudoeste 6 Sudoeste 0 927.3 -1 20
2019-05-13 04:00:00 14.8 0 Calma 4 Este 0 927.5 -1 17
2019-05-13 03:00:00 15.2 0 Calma 5 Norte 0 928 -0.4 17
2019-05-13 02:00:00 16.8 3 Sudoeste 6 Sur 0 928.3 -0.3 15
2019-05-13 01:00:00 17 4 Sudoeste 5 Sudoeste 0 928.5 0.1 16
2019-05-13 00:00:00 17.5 5 Sudoeste 6 Sudoeste 0 928.4 0.2 16
2019-05-12 23:00:00 17.6 2 Sur 10 Norte 0 928.6 0.5 15
2019-05-12 22:00:00 21 8 Norte 13 Norte 0 928.4 0.4 12
2019-05-12 21:00:00 23.2 10 Norte 22 Norte 0 928.2 0 --
2019-05-12 20:00:00 25.3 13 Norte 24 Norte 0 928.1 -0.4 12
2019-05-12 19:00:00 26.2 15 Norte 25 Norte 0 928 -1.5 13
2019-05-12 18:00:00 27 11 Norte 25 Norte 0 928.2 -2 13
2019-05-12 17:00:00 26.8 8 Noroeste 23 Noroeste 0 928.5 -1.5 15
2019-05-12 16:00:00 26.4 9 Norte 21 Nordeste 0 929.5 -0.9 15
2019-05-12 15:00:00 25.4 6 Norte 20 Noroeste 0 930.2 -0.7 16
2019-05-12 14:00:00 24.6 10 Norte 21 Norte 0 930 -1 20
2019-05-12 13:00:00 23.5 11 Norte 23 Norte 0 930.4 -0.3 26
2019-05-12 12:00:00 21.5 9 Norte 15 Norte 0 930.9 0.2 31
2019-05-12 11:00:00 18.7 9 Norte 16 Norte 0 931 0 37
2019-05-12 10:00:00 16.3 5 Norte 11 Norte 0 930.7 0.2 45
2019-05-12 09:00:00 14.6 4 Noroeste 9 Oeste 0 930.7 0.4 49
2019-05-12 08:00:00 10.9 4 Oeste 12 Oeste 0 931 0.9 48
2019-05-12 07:00:00 10.1 6 Oeste 8 Oeste 0 930.5 1.1 48
2019-05-12 06:00:00 11.8 4 Noroeste 9 Noroeste 0 930.3 0.5 40
2019-05-12 05:00:00 12.1 2 Oeste 15 Norte 0 930.1 0.3 35
2019-05-12 04:00:00 13.4 3 Norte 7 Sudoeste 0 929.4 -0.2 31
2019-05-12 03:00:00 12.8 0 Calma 13 Norte 0 929.8 0.7 29
2019-05-12 02:00:00 15.5 0 Calma 7 Nordeste 0 929.8 0.8 23
2019-05-12 01:00:00 18.1 4 Este 13 Nordeste 0 929.6 1.4 22
2019-05-12 00:00:00 19.6 8 Este 15 Nordeste 0 929.1 1.2 21
2019-05-11 23:00:00 20.8 10 Nordeste 16 Nordeste 0 929 1.6 20
2019-05-11 22:00:00 22 10 Norte 15 Norte 0 928.2 0.6 21
2019-05-11 21:00:00 24 12 Nordeste 20 Norte 0 927.9 0.5 19
2019-05-11 20:00:00 25.9 10 Norte 25 Norte 0 927.4 0.2 17
2019-05-11 19:00:00 26.7 11 Norte 26 Norte 0 927.6 0.3 17
2019-05-11 18:00:00 27.2 9 Norte 22 Norte 0 927.4 -0.3 16
2019-05-11 17:00:00 27.2 6 Noroeste 22 Norte 0 927.2 -0.4 16
2019-05-11 16:00:00 26.7 6 Norte 22 Norte 0 927.3 -0.5 19
2019-05-11 15:00:00 25.3 12 Norte 23 Norte 0 927.7 -0.3 19
2019-05-11 14:00:00 25.6 6 Norte 15 Nordeste 0 927.6 -0.4 22
2019-05-11 13:00:00 24 2 Norte 13 Norte 0 927.8 -0.5 23
2019-05-11 12:00:00 22 5 Nordeste 14 Nordeste 0 928 0.3 29
2019-05-11 11:00:00 20.3 5 Nordeste 14 Nordeste 0 928 0.6 36
2019-05-11 10:00:00 18.4 4 Nordeste 10 Norte 0 928.3 1.5 42
2019-05-11 09:00:00 16.6 0 Calma 5 Norte 0 927.7 0.8 49
2019-05-11 08:00:00 13.5 0 Calma 6 Sudoeste 0 927.4 0.7 62
2019-05-11 07:00:00 10.9 4 Sur 5 Sur 0 926.8 0.4 69
2019-05-11 06:00:00 12.5 0 Calma 10 Oeste 0 926.9 0.4 67
2019-05-11 05:00:00 11.5 5 Sudoeste 9 Oeste 0 926.7 0.1 64
2019-05-11 04:00:00 14.3 5 Oeste 13 Oeste 0 926.4 -0.7 58
2019-05-11 03:00:00 14.4 7 Oeste 11 Oeste 0 926.5 -0.3 58
2019-05-11 02:00:00 14.2 8 Oeste 13 Oeste 0 926.6 0.2 57
2019-05-11 01:00:00 14.6 5 Sudoeste 11 Sudoeste 0 927.1 1.3 52
2019-05-11 00:00:00 16.6 6 Oeste 11 Oeste 0 926.8 2 44
2019-05-10 23:00:00 17.7 8 Oeste 12 Oeste 0 926.4 2.1 40
2019-05-10 22:00:00 19 6 Oeste 15 Oeste 0 925.8 1.8 34
2019-05-10 21:00:00 20.9 10 Oeste 21 Oeste 0 924.8 0.9 28
2019-05-10 20:00:00 23.4 13 Noroeste 24 Oeste 0 924.3 0.2 22
2019-05-10 19:00:00 24 15 Noroeste 33 Oeste 0 924 -0.2 21
2019-05-10 18:00:00 25.4 12 Noroeste 26 Noroeste 0 923.9 -0.8 20
2019-05-10 17:00:00 26.1 9 Oeste 27 Noroeste 0 924.1 -1.1 23
2019-05-10 16:00:00 24.6 12 Noroeste 23 Noroeste 0 924.2 -1.3 23
2019-05-10 15:00:00 24.2 10 Oeste 24 Oeste 0 924.7 -0.7 26
2019-05-10 14:00:00 23 9 Oeste 23 Noroeste 0 925.2 0 30
2019-05-10 13:00:00 21.4 8 Noroeste 24 Noroeste 0 925.5 0.6 37
2019-05-10 12:00:00 19.6 7 Noroeste 18 Oeste 0 925.4 0.5 42
2019-05-10 11:00:00 17.4 5 Oeste 10 Noroeste 0 925.2 0.4 48
2019-05-10 10:00:00 15.5 4 Norte 10 Sudoeste 0 924.9 0.7 55
2019-05-10 09:00:00 15 6 Sudoeste 10 Sudoeste 0 924.9 0.5 63
2019-05-10 08:00:00 13.2 0 Calma 8 Noroeste 0 924.8 0.7 71
2019-05-10 07:00:00 13.4 5 Noroeste 9 Noroeste 0 924.2 -0.4 70
2019-05-10 06:00:00 13.5 0 Calma 6 Oeste 0 924.4 -0.1 70
2019-05-10 05:00:00 13.8 4 Oeste 9 Oeste 0 924.1 -0.5 68
2019-05-10 04:00:00 13.4 3 Sudoeste 9 Oeste 0 924.6 -0.1 68
2019-05-10 03:00:00 14.4 7 Oeste 15 Oeste 0 924.5 -0.1 64
2019-05-10 02:00:00 15.3 9 Oeste 12 Oeste 0 924.6 0.2 61
2019-05-10 01:00:00 16.2 7 Oeste 15 Sudoeste 0 924.7 0.6 56
2019-05-10 00:00:00 16.2 9 Sudoeste 16 Sudoeste 0 924.6 0.6 55
2019-05-09 23:00:00 16.6 13 Sudoeste 22 Sudoeste 0 924.4 1.4 52
2019-05-09 22:00:00 16.6 13 Sur 21 Sur 0 924.1 0.1 52
2019-05-09 21:00:00 16.4 8 Sudoeste 24 Sudoeste 0 924 0 52
2019-05-09 20:00:00 18.1 15 Sudoeste 26 Sur 0 923 -1 45
2019-05-09 19:00:00 18.8 14 Sur 22 Sur 0 924 -0.7 43
2019-05-09 18:00:00 18.6 14 Sudoeste 26 Sudoeste 0 924 -0.5 44
2019-05-09 17:00:00 18.4 15 Sudoeste 28 Sur 0 924 -0.6 42
2019-05-09 16:00:00 19.5 18 Sudoeste 31 Sudoeste 0 924.7 -0.3 43
2019-05-09 15:00:00 19.2 14 Sudoeste 24 Sur 0 924.5 -0.4 44
2019-05-09 14:00:00 20 19 Sur 28 Sur 0 924.6 -0.2 43
2019-05-09 13:00:00 17.6 16 Sudoeste 27 Sudoeste 0 925 0.6 46
2019-05-09 12:00:00 16.2 13 Sudoeste 24 Sudoeste 0 924.9 0.8 52
2019-05-09 11:00:00 15.4 7 Sudoeste 20 Sudoeste 0 924.8 0.8 58
2019-05-09 10:00:00 14.1 7 Sudoeste 14 Sudoeste 0 924.4 0.9 65
2019-05-09 09:00:00 13.4 4 Oeste 15 Sudoeste 0.1 924.1 0.7 71
2019-05-09 08:00:00 12.9 0 Calma 8 Oeste 0.2 924 0.9 72
2019-05-09 07:00:00 12.5 5 Oeste 11 Sudoeste 0.2 923.5 0 73
2019-05-09 06:00:00 12.3 8 Sudoeste 17 Oeste 0.4 923.4 -0.2 73
2019-05-09 05:00:00 12.9 9 Oeste 15 Sudoeste 0.1 923.1 -0.7 72
2019-05-09 04:00:00 13.1 12 Sudoeste 24 Sudoeste 0 923.5 -0.4 73
2019-05-09 03:00:00 14 18 Sudoeste 24 Sudoeste 0 923.6 -0.4 66
2019-05-09 02:00:00 14.2 12 Sudoeste 20 Sudoeste 0 923.8 -0.6 68
2019-05-09 01:00:00 13.8 12 Sudoeste 22 Oeste 0 923.9 0.2 71
2019-05-09 00:00:00 14.4 12 Sudoeste 19 Sudoeste 0 924 0.6 68
2019-05-08 23:00:00 14.6 11 Oeste 27 Sudoeste 0 924.4 1.3 65
2019-05-08 22:00:00 14.9 18 Sudoeste 27 Sudoeste 0 923.7 0.7 62
2019-05-08 21:00:00 14.2 12 Sudoeste 24 Sudoeste 0 923.4 0.2 67
2019-05-08 20:00:00 15.4 19 Sudoeste 33 Sudoeste 0 923.1 -0.4 55
2019-05-08 19:00:00 16.4 26 Sudoeste 37 Sudoeste 0 923 -0.9 49
2019-05-08 18:00:00 18.9 23 Sudoeste 39 Sudoeste 0 923.2 -0.5 44
2019-05-08 17:00:00 18.3 23 Sudoeste 35 Sudoeste 0 923.5 -0.3 44
2019-05-08 16:00:00 16.5 25 Sudoeste 43 Oeste 0 923.9 0 47
2019-05-08 15:00:00 17.9 30 Sudoeste 44 Sudoeste 0 923.7 -0.6 42
2019-05-08 14:00:00 17.3 28 Sudoeste 47 Sudoeste 0 923.8 -0.3 44
2019-05-08 13:00:00 17.2 29 Sudoeste 47 Sudoeste 0 923.9 0.4 45
2019-05-08 12:00:00 17.5 30 Sudoeste 42 Sudoeste 0 924.3 0.9 46
2019-05-08 11:00:00 17.3 31 Sudoeste 46 Sudoeste 0 924.1 0.2 48
2019-05-08 10:00:00 16.6 27 Sudoeste 40 Sudoeste 0 923.5 -0.2 52
2019-05-08 09:00:00 14.9 21 Sudoeste 32 Sudoeste 0 923.4 -0.1 55
2019-05-08 08:00:00 14.1 0 Calma 0 Calma 0 923.9 0.2 62
2019-05-08 07:00:00 13.2 0 Calma 6 Oeste 0 923.7 -0.1 65
2019-05-08 06:00:00 13.2 3 Oeste 9 Oeste 0 923.5 -0.5 66
2019-05-08 05:00:00 12.5 6 Sudoeste 10 Sudoeste 0 923.7 -1.2 68
2019-05-08 04:00:00 13 8 Sudoeste 12 Sudoeste 0 923.8 -1.4 65
2019-05-08 03:00:00 13.3 6 Sudoeste 17 Oeste 0 924 -1 60
2019-05-08 02:00:00 14.1 12 Oeste 17 Oeste 0 924.9 0.1 57
2019-05-08 01:00:00 14.7 8 Oeste 16 Oeste 0 925.2 1.1 52
2019-05-08 00:00:00 15.7 12 Oeste 17 Oeste 0 925 1.5 46
2019-05-07 23:00:00 17.2 9 Oeste 20 Oeste 0 924.8 1.6 37
2019-05-07 22:00:00 18.4 9 Oeste 21 Sudoeste 0 924.1 0.3 32
2019-05-07 21:00:00 19.4 14 Sudoeste 25 Sudoeste 0 923.5 -0.3 29
2019-05-07 20:00:00 21.2 18 Sur 29 Sur 0 923.2 -0.8 26
2019-05-07 19:00:00 23.2 20 Sudoeste 31 Sudoeste 0 923.8 -1.1 25
2019-05-07 18:00:00 24.9 15 Oeste 28 Sudoeste 0 923.8 -1.7 24
2019-05-07 17:00:00 24.4 12 Sudoeste 26 Sudoeste 0 924 -2.1 24
2019-05-07 16:00:00 24.4 5 Sudoeste 24 Sudoeste 0 924.9 -1.5 25
2019-05-07 15:00:00 23.8 10 Sudoeste 23 Oeste 0 925.5 -1.1 24
2019-05-07 14:00:00 22.4 12 Sudoeste 23 Sudoeste 0 926.1 -0.2 28
2019-05-07 13:00:00 21 12 Oeste 27 Sudoeste 0 926.4 0.1 28
2019-05-07 12:00:00 19.9 13 Sudoeste 24 Sudoeste 0 926.6 -0.3 28
2019-05-07 11:00:00 18.7 5 Sudoeste 15 Sudoeste 0 926.3 0.1 35
2019-05-07 10:00:00 16.3 2 Norte 6 Norte 0 926.3 0 46
2019-05-07 09:00:00 13.2 2 Norte 6 Norte 0 926.9 0.4 57
2019-05-07 08:00:00 10.9 4 Norte 9 Sudeste 0 926.2 -0.6 60
2019-05-07 07:00:00 10.4 3 Sur 6 Oeste 0 926.3 -0.2 68
2019-05-07 06:00:00 11.3 4 Oeste 6 Oeste 0 926.5 -0.4 63
2019-05-07 05:00:00 12 0 Calma 4 Sudoeste 0 926.8 0 60
2019-05-07 04:00:00 12.7 2 Sudoeste 12 Oeste 0 926.5 -0.3 57
2019-05-07 03:00:00 14.1 7 Oeste 12 Oeste 0 926.9 0.1 51
2019-05-07 02:00:00 14.2 3 Norte 4 Este 0 926.8 -0.3 49
2019-05-07 01:00:00 14.7 0 Calma 11 Noroeste 0 926.8 0.3 47
2019-05-07 00:00:00 15.7 7 Noroeste 14 Sudoeste 0 926.8 1.2 43
2019-05-06 23:00:00 16 7 Sudoeste 16 Sudoeste 0 927.1 2.1 42
2019-05-06 22:00:00 16 13 Sudoeste 23 Sudoeste 0 926.5 1.3 42
2019-05-06 21:00:00 17.9 16 Sudoeste 26 Sudoeste 0 925.6 0.5 39
2019-05-06 20:00:00 20.1 18 Sudoeste 28 Sudoeste 0 925 -0.3 32
2019-05-06 19:00:00 21.3 18 Sudoeste 27 Sudoeste 0 925.2 -0.4 30
2019-05-06 18:00:00 21.6 14 Sudoeste 27 Sudoeste 0 925.1 -1 29
2019-05-06 17:00:00 22 17 Sudoeste 31 Oeste 0 925.3 -0.9 27
2019-05-06 16:00:00 23.2 13 Sudoeste 28 Sudoeste 0 925.6 -1 25
2019-05-06 15:00:00 22.2 13 Sudoeste 32 Sudoeste 0 926.1 -0.6 27
2019-05-06 14:00:00 22.6 8 Sudoeste 25 Sudoeste 0 926.2 -0.7 25
2019-05-06 13:00:00 22.5 10 Sudoeste 25 Sudoeste 0 926.6 -0.4 27
2019-05-06 12:00:00 20.7 5 Noroeste 17 Oeste 0 926.7 -0.1 32
2019-05-06 11:00:00 19.3 3 Nordeste 12 Sur 0 926.9 0.7 37
2019-05-06 10:00:00 17.3 0 Calma 8 Nordeste 0 927 1.3 46
2019-05-06 09:00:00 14.4 6 Sudeste 9 Sudeste 0 926.8 1.8 58
2019-05-06 08:00:00 12.1 3 Este 10 Nordeste 0 926.2 1 66
2019-05-06 07:00:00 12.1 0 Calma 10 Oeste 0 925.7 0.9 60
2019-05-06 06:00:00 13.8 8 Oeste 13 Oeste 0 925 0.3 52
2019-05-06 05:00:00 14.4 9 Oeste 15 Oeste 0 925.2 0.1 52
2019-05-06 04:00:00 14.4 9 Oeste 14 Oeste 0 924.8 -0.4 51
2019-05-06 03:00:00 14.7 8 Oeste 18 Oeste 0 924.7 -0.2 50
2019-05-06 02:00:00 14.8 14 Oeste 17 Sudoeste 0 925.1 0.3 49
2019-05-06 01:00:00 15.3 11 Oeste 18 Oeste 0 925.2 0.9 48
2019-05-06 00:00:00 15.8 10 Oeste 15 Oeste 0 924.9 1.4 47
2019-05-05 23:00:00 15.7 10 Sudoeste 18 Sudoeste 0 924.8 1.4 46
2019-05-05 22:00:00 15.9 12 Sudoeste 20 Sudoeste 0 924.3 1.3 44
2019-05-05 21:00:00 17.3 14 Sudoeste 27 Sudoeste 0 923.5 0.2 40
2019-05-05 20:00:00 19.9 18 Sudoeste 26 Sudoeste 0 923.4 -0.4 35
2019-05-05 19:00:00 20.9 17 Oeste 39 Oeste 0 923 -1.1 28
2019-05-05 18:00:00 23.2 13 Oeste 29 Oeste 0 923.3 -0.8 23
2019-05-05 17:00:00 22.9 16 Oeste 31 Oeste 0 923.8 -0.2 25
2019-05-05 16:00:00 22.3 13 Sudoeste 37 Sudoeste 0 924.1 -0.5 28
2019-05-05 15:00:00 21.7 15 Sudoeste 30 Sudoeste 0 924.1 -0.5 29
2019-05-05 14:00:00 20.9 17 Sudoeste 32 Sudoeste 0 924 0 30
2019-05-05 13:00:00 19.6 13 Este 28 Sudeste 0 924.6 0.3 37
2019-05-05 12:00:00 18.4 14 Este 23 Este 0 924.6 1.2 42
2019-05-05 11:00:00 17.3 10 Sudeste 18 Este 0 924 0.6 44
2019-05-05 10:00:00 15.6 2 Sudeste 8 Norte 0 924.3 2.1 41
2019-05-05 09:00:00 12.7 5 Norte 8 Norte 0 923.4 1.5 57
2019-05-05 08:00:00 9.7 4 Este 8 Este 0 923.4 1.3 70
2019-05-05 07:00:00 8.6 7 Nordeste 10 Nordeste 0 922.2 0.3 71
2019-05-05 06:00:00 10.5 2 Sur 3 Sur 0 921.9 -0.2 57
2019-05-05 05:00:00 10.6 4 Sur 9 Nordeste 0 922.1 -0.4 55
2019-05-05 04:00:00 11.7 4 Norte 11 Nordeste 0 921.9 -0.6 52
2019-05-05 03:00:00 12 3 Sur 8 Este 0 922.1 -0.1 47
2019-05-05 02:00:00 12.8 4 Nordeste 9 Oeste 0 922.5 0.1 44
2019-05-05 01:00:00 12.4 7 Oeste 14 Oeste 0 922.5 0.7 44
2019-05-05 00:00:00 14.6 6 Oeste 13 Oeste 0 922.2 0.6 33
2019-05-04 23:00:00 15 4 Sudoeste 7 Sudoeste 0 922.4 1.2 29
2019-05-04 22:00:00 15.4 4 Sudoeste 13 Oeste 0 921.8 0.4 26
2019-05-04 21:00:00 17.9 9 Oeste 16 Oeste 0 921.6 0.5 21
2019-05-04 20:00:00 19.8 8 Oeste 20 Oeste 0 921.2 -0.3 19
2019-05-04 19:00:00 20.5 8 Oeste 34 Noroeste 0 921.4 -0.2 19
2019-05-04 18:00:00 20.1 13 Norte 27 Noroeste 0 921.1 -0.7 17
2019-05-04 17:00:00 19.8 11 Noroeste 25 Noroeste 0 921.5 -0.5 17
2019-05-04 16:00:00 19.3 13 Noroeste 24 Norte 0 921.6 -0.7 21
2019-05-04 15:00:00 18.8 5 Noroeste 19 Noroeste 0 921.8 -0.7 19
2019-05-04 14:00:00 17.9 6 Noroeste 16 Noroeste 0 922 -0.3 23
2019-05-04 13:00:00 16.7 6 Norte 15 Norte 0 922.3 0.3 28
2019-05-04 12:00:00 14.9 8 Noroeste 18 Norte 0 922.5 0.8 31
2019-05-04 11:00:00 14 6 Norte 14 Norte 0 922.3 0.8 35
2019-05-04 10:00:00 11.8 7 Norte 11 Norte 0 922 1.3 48
2019-05-04 09:00:00 10 4 Norte 7 Norte 0 921.7 1.2 61
2019-05-04 08:00:00 6.8 3 Oeste 5 Oeste 0 921.5 1 71
2019-05-04 07:00:00 6.8 0 Calma 4 Oeste 0 920.7 0.4 73
2019-05-04 06:00:00 6.6 2 Sur 7 Sur 0 920.5 -0.3 72
2019-05-04 05:00:00 8.2 2 Noroeste 8 Norte 0 920.5 0.1 71
2019-05-04 04:00:00 9.5 2 Nordeste 11 Norte 0 920.3 -0.3 67
2019-05-04 03:00:00 10.4 0 Calma 7 Sudeste 0 920.8 0.2 62
2019-05-04 02:00:00 10.2 2 Sudoeste 12 Nordeste 0 920.4 0.3 53
2019-05-04 01:00:00 11.9 9 Norte 15 Norte 0 920.6 1.9 42
2019-05-04 00:00:00 12.7 10 Norte 29 Norte 0 920.6 2.6 39
2019-05-03 23:00:00 14.3 15 Norte 28 Norte 0 920.1 2.8 39
2019-05-03 22:00:00 14.8 19 Norte 34 Norte 0 918.7 2 37
2019-05-03 21:00:00 16.4 18 Norte 27 Nordeste 0 918 1.5 37
2019-05-03 20:00:00 17.7 12 Norte 25 Norte 0.1 917.3 0.6 39
2019-05-03 19:00:00 17.6 9 Oeste 17 Norte 0.2 916.7 0.7 46
2019-05-03 18:00:00 19 3 Norte 30 Norte 0.6 916.5 -0.2 44
2019-05-03 17:00:00 16.8 17 Norte 44 Norte 0.6 916.7 -0.5 54
2019-05-03 16:00:00 24.2 16 Oeste 34 Noroeste 0 916 -1.7 23
2019-05-03 15:00:00 22.6 12 Noroeste 27 Noroeste 0 916.7 -1 32
2019-05-03 14:00:00 22.5 13 Noroeste 28 Sudoeste 0 917.2 -0.9 30
2019-05-03 13:00:00 20.6 14 Oeste 27 Sudoeste 0 917.7 -0.4 32
2019-05-03 12:00:00 20.1 10 Sudoeste 23 Sudoeste 0 917.7 -0.4 32
2019-05-03 11:00:00 19.1 14 Sudoeste 23 Oeste 0 918.1 -0.3 34
2019-05-03 10:00:00 18.5 5 Sur 12 Sur 0 918.1 -0.2 37
2019-05-03 09:00:00 15.5 3 Nordeste 5 Nordeste 0 918.1 -0.2 43
2019-05-03 08:00:00 12.5 4 Nordeste 7 Nordeste 0 918.4 -0.3 49
2019-05-03 07:00:00 12.1 0 Calma 7 Sur 0 918.3 -0.4 51
2019-05-03 06:00:00 12.1 4 Sudeste 8 Sudeste 0 918.3 -0.7 50
2019-05-03 05:00:00 12.5 2 Norte 15 Sudeste 0 918.7 -0.9 49
2019-05-03 04:00:00 12.7 12 Sudeste 16 Este 0 918.7 -1 48
2019-05-03 03:00:00 13.7 8 Nordeste 14 Este 0 919 -0.5 49
2019-05-03 02:00:00 15.7 2 Nordeste 21 Sudeste 0 919.6 0.2 44
2019-05-03 01:00:00 14.7 11 Sudeste 19 Sudeste 0 919.7 0.5 48
2019-05-03 00:00:00 16 5 Nordeste 10 Sur 0 919.5 0.6 50
2019-05-02 23:00:00 18 3 Nordeste 9 Nordeste 0 919.4 1.1 40
2019-05-02 22:00:00 19.3 8 Norte 16 Norte 0 919.2 0.5 35
2019-05-02 21:00:00 20.8 12 Norte 24 Norte 0 918.9 0.3 30
2019-05-02 20:00:00 22.6 14 Norte 23 Nordeste 0 918.3 -0.6 26
2019-05-02 19:00:00 23.9 12 Norte 20 Norte 0 918.7 -0.8 23
2019-05-02 18:00:00 23.2 10 Norte 18 Nordeste 0 918.6 -1.4 23
2019-05-02 17:00:00 23.5 9 Norte 16 Norte 0 918.9 -1.6 25
2019-05-02 16:00:00 22.5 5 Norte 21 Norte 0 919.5 -1.3 25
2019-05-02 15:00:00 23 6 Nordeste 18 Nordeste 0 920 -1.1 26
2019-05-02 14:00:00 22.4 6 Norte 19 Norte 0 920.5 -0.7 26
2019-05-02 13:00:00 21.4 9 Norte 16 Norte 0 920.8 0.3 31
2019-05-02 12:00:00 20.2 8 Norte 15 Norte 0 921.1 0.8 37
2019-05-02 11:00:00 19.1 2 Norte 9 Nordeste 0 921.2 1.2 43
2019-05-02 10:00:00 16.8 3 Norte 6 Norte 0 920.5 0.7 52
2019-05-02 09:00:00 14.7 5 Nordeste 9 Nordeste 0 920.3 0.7 57
2019-05-02 08:00:00 11.9 3 Sudeste 12 Nordeste 0 920 0 66
2019-05-02 07:00:00 12.5 8 Nordeste 15 Nordeste 0 919.8 -1.7 64
2019-05-02 06:00:00 13.3 5 Este 20 Sudeste 0 919.6 -2.4 60
2019-05-02 05:00:00 12.7 13 Sudeste 31 Nordeste 0.8 920 -1.3 64
2019-05-02 04:00:00 12.9 13 Nordeste 25 Nordeste 0.4 921.5 1.5 68
2019-05-02 03:00:00 13.6 13 Norte 36 Norte 0.5 922 2 67
2019-05-02 02:00:00 15.3 20 Noroeste 35 Noroeste 0.3 921.3 1.3 52
2019-05-02 01:00:00 17.2 19 Sudeste 28 Sudeste 0 920 0.5 41
2019-05-02 00:00:00 17.4 9 Este 18 Este 0 920 1.1 43
2019-05-01 23:00:00 18.3 5 Este 12 Norte 0 920 1.4 39
2019-05-01 22:00:00 20.7 7 Norte 21 Norte 0 919.5 0.7 32
2019-05-01 21:00:00 21.8 4 Noroeste 11 Noroeste 0 918.9 0.3 30
2019-05-01 20:00:00 23.7 5 Noroeste 14 Norte 0 918.6 -0.6 25
2019-05-01 19:00:00 24.8 9 Norte 22 Sur 0 918.8 -0.8 24
2019-05-01 18:00:00 24.5 8 Sudoeste 19 Sudoeste 0 918.6 -1.6 26
2019-05-01 17:00:00 26.6 6 Oeste 21 Sudoeste 0 919.2 -1.6 24
2019-05-01 16:00:00 25 5 Oeste 21 Sur 0 919.6 -1.8 25
2019-05-01 15:00:00 26 8 Sur 18 Sur 0 920.2 -1.4 26
2019-05-01 14:00:00 25.2 2 Sur 15 Sudeste 0 920.8 -1 28
2019-05-01 13:00:00 22.3 10 Sudeste 18 Sudeste 0 921.4 -0.1 32
2019-05-01 12:00:00 23.3 6 Sur 15 Sudeste 0 921.6 0.1 32
2019-05-01 11:00:00 22 3 Sur 9 Sur 0 921.8 0.8 32
2019-05-01 10:00:00 19.8 4 Nordeste 8 Nordeste 0 921.5 0.8 42
2019-05-01 09:00:00 15.7 4 Norte 5 Norte 0 921.5 0.9 50
2019-05-01 08:00:00 13.2 3 Nordeste 6 Nordeste 0 921 0.5 55
2019-05-01 07:00:00 12.3 4 Norte 8 Nordeste 0 920.7 -0.2 57
2019-05-01 06:00:00 12.7 5 Nordeste 8 Este 0 920.6 -0.9 56
2019-05-01 05:00:00 13.4 3 Noroeste 6 Nordeste 0 920.5 -1.4 55
2019-05-01 04:00:00 13.9 3 Nordeste 6 Nordeste 0 920.9 -1.4 53
2019-05-01 03:00:00 15.1 2 Norte 4 Norte 0 921.5 -0.8 50
2019-05-01 02:00:00 16 3 Sudoeste 7 Sur 0 921.9 -0.8 45
2019-05-01 01:00:00 15.9 5 Sudoeste 6 Sudoeste 0 922.3 0.1 46
2019-05-01 00:00:00 17.9 2 Oeste 5 Oeste 0 922.3 0.4 39
2019-04-30 23:00:00 19.3 2 Noroeste 10 Nordeste 0 922.7 0.8 36
2019-04-30 22:00:00 19.4 4 Sudoeste 9 Sudoeste 0 922.2 0.1 35
2019-04-30 21:00:00 19.7 5 Sur 17 Sur 0 921.9 -0.3 36
2019-04-30 20:00:00 20.3 12 Sur 21 Sudeste 0 921.9 -0.6 32
2019-04-30 19:00:00 22 5 Sur 24 Sudoeste 0 922.1 -1 29
2019-04-30 18:00:00 24.9 11 Sur 23 Sudeste 0 922.2 -1.3 26
2019-04-30 17:00:00 24.1 7 Sudoeste 26 Sudoeste 0 922.5 -1.1 25
2019-04-30 16:00:00 25.1 6 Oeste 19 Sudoeste 0 923.1 -1.4 24
2019-04-30 15:00:00 24.3 6 Noroeste 18 Norte 0 923.5 -1.2 24
2019-04-30 14:00:00 24.8 4 Noroeste 19 Noroeste 0 923.6 -0.7 25
2019-04-30 13:00:00 23.5 4 Oeste 14 Oeste 0 924.5 -0.1 29
2019-04-30 12:00:00 22.4 2 Norte 12 Noroeste 0 924.7 0.1 30
2019-04-30 11:00:00 20.8 3 Este 9 Norte 0 924.3 0.1 33
2019-04-30 10:00:00 17.6 5 Nordeste 8 Nordeste 0 924.6 0.7 42
2019-04-30 09:00:00 14.5 0 Calma 7 Norte 0 924.6 1.1 50
2019-04-30 08:00:00 11.9 3 Este 7 Norte 0 924.2 0.5 58
2019-04-30 07:00:00 11.3 4 Nordeste 6 Nordeste 0 923.9 -0.1 56
2019-04-30 06:00:00 11.5 6 Nordeste 8 Nordeste 0 923.5 -0.7 55
2019-04-30 05:00:00 12.5 4 Este 6 Nordeste 0 923.7 -1.1 55
2019-04-30 04:00:00 13.9 0 Calma 5 Sudoeste 0 924 -0.6 45
2019-04-30 03:00:00 14.2 2 Sudoeste 4 Norte 0 924.2 -0.5 42
2019-04-30 02:00:00 15.9 0 Calma 4 Sur 0 924.8 -0.1 37
2019-04-30 01:00:00 16.1 0 Calma 5 Sudoeste 0 924.6 0.4 35
2019-04-30 00:00:00 15.7 0 Calma 9 Oeste 0 924.7 1.3 37
2019-04-29 23:00:00 16.5 5 Sudoeste 6 Sur 0 924.9 1.5 35
2019-04-29 22:00:00 18 4 Sudoeste 6 Noroeste 0 924.2 0.8 30
2019-04-29 21:00:00 21.5 2 Noroeste 13 Norte 0 923.4 0.1 24
2019-04-29 20:00:00 23.1 8 Norte 14 Norte 0 923.4 -0.3 20
2019-04-29 19:00:00 23.6 4 Norte 15 Noroeste 0 923.4 -0.8 22
2019-04-29 18:00:00 23.7 6 Norte 20 Noroeste 0 923.3 -1.4 22
2019-04-29 17:00:00 23.6 5 Sudoeste 15 Norte 0 923.7 -1.3 22
2019-04-29 16:00:00 23.5 10 Nordeste 19 Oeste 0 924.2 -1.2 19
2019-04-29 15:00:00 24.2 5 Oeste 19 Norte 0 924.7 -1.2 23
2019-04-29 14:00:00 23 6 Norte 18 Nordeste 0 925 -0.7 22
2019-04-29 13:00:00 22.5 4 Norte 12 Nordeste 0 925.4 -0.3 26
2019-04-29 12:00:00 21.4 0 Calma 9 Sur 0 925.9 -0.1 30
2019-04-29 11:00:00 18.4 3 Sudoeste 8 Sudoeste 0 925.7 -0.1 35
2019-04-29 10:00:00 16.5 0 Calma 5 Sudoeste 0 925.7 0.4 46
2019-04-29 09:00:00 13.1 0 Calma 5 Norte 0 926 0.6 49
2019-04-29 08:00:00 10.4 4 Norte 6 Nordeste 0 925.8 0.2 57
2019-04-29 07:00:00 10.2 5 Nordeste 6 Nordeste 0 925.3 -0.3 58
2019-04-29 06:00:00 10.5 0 Calma 6 Norte 0 925.4 -1 57
2019-04-29 05:00:00 10.8 3 Nordeste 8 Nordeste 0 925.6 -0.9 55
2019-04-29 04:00:00 12.6 5 Nordeste 7 Nordeste 0 925.6 -0.9 48
2019-04-29 03:00:00 14 2 Sudeste 5 Sur 0 926.4 0.2 39
2019-04-29 02:00:00 14.2 2 Sudoeste 8 Sudoeste 0 926.5 -0.1 39
2019-04-29 01:00:00 13.9 3 Sudoeste 5 Sudoeste 0 926.5 0.2 37
2019-04-29 00:00:00 16 0 Calma 6 Sur 0 926.2 0.4 32
2019-04-28 23:00:00 16.3 0 Calma 5 Noroeste 0 926.6 1 32
2019-04-28 22:00:00 18.7 4 Norte 18 Norte 0 926.3 0.7 25
2019-04-28 21:00:00 20.3 12 Norte 17 Norte 0 925.8 -0.3 22
2019-04-28 20:00:00 22.5 8 Norte 16 Norte 0 925.6 -0.7 20
2019-04-28 19:00:00 23.5 7 Norte 16 Norte 0 925.6 -1.4 20
2019-04-28 18:00:00 23.6 4 Nordeste 14 Nordeste 0 926.1 -1.4 21
2019-04-28 17:00:00 23.6 0 Calma 15 Noroeste 0 926.3 -1.8 21
2019-04-28 16:00:00 23.2 4 Norte 14 Norte 0 927 -1.6 22
2019-04-28 15:00:00 22.5 3 Noroeste 15 Norte 0 927.5 -1.5 23
2019-04-28 14:00:00 21.4 5 Nordeste 15 Nordeste 0 928.1 -1.3 25
2019-04-28 13:00:00 20.5 4 Este 10 Norte 0 928.6 -1 26
2019-04-28 12:00:00 19.5 3 Nordeste 10 Oeste 0 929 -0.4 31
2019-04-28 11:00:00 17.3 0 Calma 8 Noroeste 0 929.4 0.2 35
2019-04-28 10:00:00 14.5 0 Calma 7 Noroeste 0 929.6 0.1 39
2019-04-28 09:00:00 11.5 0 Calma 4 Sudoeste 0 929.4 0.1 52
2019-04-28 08:00:00 7.8 3 Sur 5 Sudoeste 0 929.2 -0.8 61
2019-04-28 07:00:00 7.7 3 Sudoeste 5 Oeste 0 929.5 -0.3 58
2019-04-28 06:00:00 8.6 3 Sur 5 Sur 0 929.3 -1 55
2019-04-28 05:00:00 8.4 0 Calma 5 Sudoeste 0 930 -0.9 50
2019-04-28 04:00:00 11.3 0 Calma 2 Sudeste 0 929.8 -1.1 42
2019-04-28 03:00:00 12.2 3 Sudeste 4 Sudeste 0 930.3 -1.1 39
2019-04-28 02:00:00 12 3 Sudoeste 5 Sudoeste 0 930.9 -0.5 40
2019-04-28 01:00:00 12.3 3 Sudoeste 6 Sudoeste 0 930.9 0.2 40
2019-04-28 00:00:00 13 0 Calma 6 Nordeste 0 931.4 0.7 39
2019-04-27 23:00:00 14.5 3 Norte 15 Norte 0 931.4 1.1 32
2019-04-27 22:00:00 15.9 11 Norte 16 Norte 0 930.7 0.2 29
2019-04-27 21:00:00 17.7 9 Norte 18 Norte 0 930.7 0.4 26
2019-04-27 20:00:00 19.7 9 Norte 19 Norte 0 930.3 -0.4 22
2019-04-27 19:00:00 20.1 9 Norte 18 Norte 0 930.5 -0.9 21
2019-04-27 18:00:00 20.5 7 Norte 18 Norte 0 930.3 -1.7 19
2019-04-27 17:00:00 20.6 6 Norte 19 Norte 0 930.7 -1.7 19
2019-04-27 16:00:00 20.5 5 Nordeste 18 Norte 0 931.4 -1 21
2019-04-27 15:00:00 19.5 9 Norte 18 Nordeste 0 932 -0.7 22
2019-04-27 14:00:00 18.5 6 Nordeste 18 Nordeste 0 932.4 -0.1 22
2019-04-27 13:00:00 17.7 9 Nordeste 21 Norte 0 932.4 -0.3 24
2019-04-27 12:00:00 16 10 Nordeste 23 Nordeste 0 932.7 0 29
2019-04-27 11:00:00 14.7 8 Nordeste 20 Norte 0 932.5 0 32
2019-04-27 10:00:00 11.8 4 Norte 7 Norte 0 932.7 0.8 39
2019-04-27 09:00:00 8.2 2 Sudoeste 4 Sudoeste 0 932.7 0.9 56
2019-04-27 08:00:00 4.7 3 Sur 7 Noroeste 0 932.5 0.7 68
2019-04-27 07:00:00 5.1 5 Noroeste 9 Noroeste 0 931.9 -0.1 62
2019-04-27 06:00:00 6.8 3 Este 6 Sur 0 931.8 -0.4 56
2019-04-27 05:00:00 6.9 3 Nordeste 5 Nordeste 0 931.8 -0.7 57
2019-04-27 04:00:00 7.2 2 Nordeste 4 Nordeste 0 932 -0.8 58
2019-04-27 03:00:00 6.8 0 Calma 4 Sur 0 932.2 -0.6 59
2019-04-27 02:00:00 7.5 0 Calma 4 Norte 0 932.5 0 56
2019-04-27 01:00:00 8.6 2 Este 5 Nordeste 0 932.8 0.8 50
2019-04-27 00:00:00 9.5 2 Este 7 Este 0 932.8 1.4 45
2019-04-26 23:00:00 11.1 3 Este 6 Este 0 932.5 1.3 37
2019-04-26 22:00:00 12.1 3 Nordeste 9 Norte 0 932 1.2 33
2019-04-26 21:00:00 13.6 6 Norte 14 Nordeste 0 931.4 0.7 28
2019-04-26 20:00:00 14.8 6 Norte 19 Norte 0 931.2 0.3 25
2019-04-26 19:00:00 15.1 8 Norte 20 Oeste 0 930.8 -0.2 25
2019-04-26 18:00:00 16 8 Noroeste 18 Oeste 0 930.7 -0.5 26
2019-04-26 17:00:00 15.8 8 Noroeste 20 Noroeste 0 930.9 -0.4 27
2019-04-26 16:00:00 14.8 8 Noroeste 18 Noroeste 0 931 -0.6 28
2019-04-26 15:00:00 15 7 Oeste 18 Noroeste 0 931.2 -0.4 30
2019-04-26 14:00:00 13.6 5 Noroeste 16 Noroeste 0 931.3 -0.5 31
2019-04-26 13:00:00 12.7 4 Norte 12 Noroeste 0 931.6 0.6 36
2019-04-26 12:00:00 11.4 4 Noroeste 16 Sudoeste 0 931.6 0.9 41
2019-04-26 11:00:00 9.8 2 Oeste 12 Oeste 0 931.8 1.8 51
2019-04-26 10:00:00 8.6 5 Oeste 9 Oeste 0 931 1.7 55
2019-04-26 09:00:00 7.6 3 Oeste 6 Oeste 0 930.7 1.6 61
2019-04-26 08:00:00 3.7 0 Calma 9 Sur 0 930 1.1 66
2019-04-26 07:00:00 3.7 3 Sudoeste 14 Oeste 0 929.3 0.8 67
2019-04-26 06:00:00 3.5 12 Oeste 16 Oeste 0 929.1 0.5 69
2019-04-26 05:00:00 3.7 10 Oeste 13 Oeste 0 928.9 0.2 69
2019-04-26 04:00:00 3.7 14 Oeste 17 Oeste 0 928.5 -0.2 67
2019-04-26 03:00:00 4.6 3 Sudoeste 14 Oeste 0 928.6 0.6 67
2019-04-26 02:00:00 5.4 3 Nordeste 19 Oeste 0 928.7 1.7 67
2019-04-26 01:00:00 6.3 10 Oeste 14 Oeste 0 928.7 2.6 64
2019-04-26 00:00:00 6.6 5 Oeste 14 Oeste 0 928 3.4 64
2019-04-25 23:00:00 6.5 13 Oeste 20 Oeste 0 927 3 66
2019-04-25 22:00:00 7.4 11 Oeste 29 Oeste 2.4 926.1 2.3 67
2019-04-25 21:00:00 10 8 Oeste 35 Oeste 0 924.6 1.8 49
2019-04-25 20:00:00 11.2 15 Oeste 38 Oeste 0 924 1.8 42
2019-04-25 19:00:00 11.1 21 Oeste 38 Sudoeste 0 923.8 1.7 44
2019-04-25 18:00:00 11.9 25 Oeste 40 Oeste 0.3 922.8 1.1 44
2019-04-25 17:00:00 12.4 24 Sudoeste 44 Sudoeste 0 922.2 0.1 45
2019-04-25 16:00:00 13.5 22 Sudoeste 37 Sudoeste 0.1 922.1 -0.3 44
2019-04-25 15:00:00 11.3 30 Sudoeste 47 Sudoeste 0 921.7 -0.4 42
2019-04-25 14:00:00 11.1 28 Sudoeste 48 Oeste 0 922.1 0.3 38
2019-04-25 13:00:00 10.9 22 Oeste 38 Oeste 0 922.4 1.6 51
2019-04-25 12:00:00 10.1 20 Sudoeste 32 Oeste 0 922.1 2 63
2019-04-25 11:00:00 7.6 18 Oeste 34 Oeste 0 921.8 2.5 68
2019-04-25 10:00:00 6.9 16 Oeste 35 Oeste 0.9 920.8 2.3 72
2019-04-25 09:00:00 8.5 14 Oeste 23 Oeste 0.3 920.1 1.9 74
2019-04-25 08:00:00 8 12 Oeste 20 Oeste 2.4 919.3 1.4 74
2019-04-25 07:00:00 8.2 10 Oeste 19 Oeste 1.6 918.5 1.5 74
2019-04-25 06:00:00 7.9 10 Oeste 36 Sudoeste 5.3 918.2 0.9 74
2019-04-25 05:00:00 10 30 Sudoeste 67 Sudoeste 0 917.9 0.2 71
2019-04-25 04:00:00 10 36 Sudoeste 69 Sur 0.5 917 -1 71
2019-04-25 03:00:00 9.9 39 Sudoeste 59 Sudoeste 0.2 917.3 -0.9 71
2019-04-25 02:00:00 9.9 42 Sudoeste 65 Sur 0.5 917.7 -0.6 69
2019-04-25 01:00:00 9.7 39 Sudoeste 57 Sudoeste 0.5 918 -0.1 69
2019-04-25 00:00:00 9.5 33 Sur 59 Sur 0.8 918.2 1.4 70
2019-04-24 23:00:00 9.7 36 Sudoeste 56 Sudoeste 0.8 918.3 1.3 70
2019-04-24 22:00:00 9.6 36 Sudoeste 57 Sudoeste 0.4 918.1 1.7 68
2019-04-24 21:00:00 9.9 46 Sudoeste 64 Sudoeste 0.2 916.8 0.1 65
2019-04-24 20:00:00 10.1 38 Sudoeste 69 Sudoeste 0.1 917 0.4 65
2019-04-24 19:00:00 10.4 43 Sudoeste 67 Sudoeste 0 916.4 -0.8 61
2019-04-24 18:00:00 10.1 33 Sur 48 Sur 0 916.7 0 64
2019-04-24 17:00:00 11.5 39 Sur 61 Sur 0 916.6 -0.4 53
2019-04-24 16:00:00 10.7 41 Sur 53 Sudoeste 0 917.2 0 58
2019-04-24 15:00:00 11.9 33 Sur 60 Sur 0 916.7 0.1 48
2019-04-24 14:00:00 10.7 36 Sudoeste 54 Sudoeste 0 917 0.2 52
2019-04-24 13:00:00 10.1 35 Sur 59 Sudoeste 0 917.2 1.4 56
2019-04-24 12:00:00 8.5 38 Sudoeste 59 Sudoeste 0 916.6 0.7 62
2019-04-24 11:00:00 7 19 Sudoeste 46 Sudoeste 0 916.8 1.1 64
2019-04-24 10:00:00 7.2 32 Sur 52 Sudoeste 0 915.8 0.8 62
2019-04-24 09:00:00 5.7 33 Sudoeste 44 Sudoeste 0 915.9 1.1 62
2019-04-24 08:00:00 4.1 19 Sudoeste 33 Sudoeste 0 915.7 0.9 64
2019-04-24 07:00:00 3.7 16 Sudoeste 33 Sudoeste 0 915 0.2 66
2019-04-24 06:00:00 3.4 18 Sudoeste 28 Sudoeste 0 914.8 0.4 65
2019-04-24 05:00:00 3.3 18 Sudoeste 27 Sudoeste 0 914.8 0.1 67
2019-04-24 04:00:00 3.2 14 Sudoeste 29 Sudoeste 0 914.8 0.3 69
2019-04-24 03:00:00 2.8 17 Sudoeste 28 Sudoeste 0 914.4 0.4 69
2019-04-24 02:00:00 2.9 2 Norte 24 Sudoeste 0.1 914.7 0.8 70
2019-04-24 01:00:00 3.4 14 Sudoeste 23 Sudoeste 1.1 914.5 1.7 71
2019-04-24 00:00:00 3.3 7 Sudoeste 35 Sudoeste 0.4 914 2.3 71
2019-04-23 23:00:00 3.9 10 Sudoeste 15 Sudoeste 0 913.9 2.2 66
2019-04-23 22:00:00 3.9 13 Sudoeste 30 Sudoeste 0.8 912.8 2.7 66
2019-04-23 21:00:00 3.9 3 Oeste 37 Sudoeste 1.2 911.7 2 66
2019-04-23 20:00:00 3.9 16 Oeste 45 Sudoeste 1.8 911.7 2.2 69
2019-04-23 19:00:00 9.5 23 Sudoeste 35 Sudoeste 0 910.1 1 40
2019-04-23 18:00:00 7.9 30 Sudoeste 42 Sudoeste 0.2 909.7 0.5 45
2019-04-23 17:00:00 9 32 Sudoeste 45 Sudoeste 0 909.5 0.3 43
2019-04-23 16:00:00 11.2 33 Sudoeste 44 Sur 0 909.1 0.1 37
2019-04-23 15:00:00 9.1 25 Sudoeste 39 Sudoeste 0.1 909.2 0.6 40
2019-04-23 14:00:00 9.8 26 Sudoeste 39 Sudoeste 0 909.2 0.9 48
2019-04-23 13:00:00 7.3 16 Oeste 28 Oeste 0 909 1.1 66
2019-04-23 12:00:00 8.3 22 Sudoeste 38 Sudoeste 0.3 908.6 1.4 64
2019-04-23 11:00:00 8.4 23 Sudoeste 41 Sudoeste 0.3 908.3 1.2 64
2019-04-23 10:00:00 7.3 18 Sudoeste 57 Sudoeste 2.4 907.9 0.6 68
2019-04-23 09:00:00 8.5 28 Sudoeste 49 Sudoeste 0.2 907.2 -0.3 65
2019-04-23 08:00:00 8.8 21 Sudoeste 35 Sudoeste 0 907.1 -1 60
2019-04-23 07:00:00 9.1 23 Sudoeste 41 Sudoeste 0 907.3 -0.9 57
2019-04-23 06:00:00 9.2 30 Sudoeste 45 Sudoeste 0.1 907.5 -1.4 57
2019-04-23 05:00:00 9.6 19 Sudoeste 44 Sudoeste 0 908.1 -1.6 55
2019-04-23 04:00:00 9.3 28 Sudoeste 46 Sudoeste 0 908.2 -1.2 57
2019-04-23 03:00:00 9.4 28 Sudoeste 41 Sudoeste 0 908.9 -0.6 57
2019-04-23 02:00:00 9.9 22 Sudoeste 37 Sudoeste 0 909.7 0.2 54
2019-04-23 01:00:00 10.4 23 Sur 31 Sur 0 909.4 -0.2 54
2019-04-23 00:00:00 11.3 22 Sur 35 Sur 0 909.5 -0.5 51